createdAt,value
2022-10-11T00:01:58.221Z,2.30
2022-10-11T00:07:03.421Z,2.20
2022-10-11T00:12:07.378Z,2.00
2022-10-11T00:17:10.857Z,2.40
2022-10-11T00:22:16.103Z,2.10
2022-10-11T00:27:19.616Z,2.37
2022-10-11T00:32:23.169Z,1.87
2022-10-11T00:37:28.120Z,1.93
2022-10-11T00:42:31.513Z,2.17
2022-10-11T00:47:35.172Z,2.10
2022-10-11T00:52:43.500Z,2.37
2022-10-11T00:57:49.906Z,2.03
2022-10-11T01:02:53.670Z,2.37
2022-10-11T01:08:00.142Z,1.73
2022-10-11T01:13:14.361Z,1.60
2022-10-11T01:18:23.318Z,2.17
2022-10-11T01:23:55.344Z,1.93
2022-10-11T01:29:10.946Z,1.97
2022-10-11T01:34:25.409Z,2.03
2022-10-11T01:39:34.539Z,1.80
2022-10-11T01:44:40.721Z,2.07
2022-10-11T01:49:46.231Z,1.70
2022-10-11T01:55:10.187Z,1.80
2022-10-11T02:00:17.170Z,1.60
2022-10-11T02:05:30.485Z,1.63
2022-10-11T02:10:41.339Z,1.80
2022-10-11T02:15:48.182Z,1.97
2022-10-11T02:20:53.999Z,2.00
2022-10-11T02:25:59.011Z,1.80
2022-10-11T02:31:06.076Z,1.90
2022-10-11T02:36:17.501Z,2.03
2022-10-11T02:41:28.935Z,1.60
2022-10-11T02:46:32.618Z,1.57
2022-10-11T02:51:37.606Z,1.77
2022-10-11T02:56:41.142Z,1.90
2022-10-11T03:01:45.000Z,1.77
2022-10-11T03:06:49.888Z,1.63
2022-10-11T03:11:53.549Z,1.50
2022-10-11T03:17:12.095Z,1.70
2022-10-11T03:22:22.749Z,1.30
2022-10-11T03:27:26.261Z,1.67
2022-10-11T03:32:30.169Z,1.70
2022-10-11T03:37:35.377Z,1.37
2022-10-11T03:42:39.424Z,1.63
2022-10-11T03:47:42.856Z,1.53
2022-10-11T03:52:47.746Z,1.67
2022-10-11T03:57:51.471Z,1.40
2022-10-11T04:02:54.882Z,1.30
2022-10-11T04:07:59.711Z,1.80
2022-10-11T04:13:03.195Z,1.40
2022-10-11T04:18:07.298Z,1.57
2022-10-11T04:23:12.171Z,1.57
2022-10-11T04:28:15.678Z,1.70
2022-10-11T04:33:19.242Z,2.70
2022-10-11T04:38:24.479Z,2.13
2022-10-11T04:43:27.905Z,2.40
2022-10-11T04:48:31.771Z,2.30
2022-10-11T04:53:36.868Z,2.10
2022-10-11T04:58:41.911Z,2.20
2022-10-11T05:03:45.351Z,2.17
2022-10-11T05:08:50.439Z,10.90
2022-10-11T05:13:54.381Z,21.07
2022-10-11T05:18:57.916Z,22.23
2022-10-11T05:24:02.811Z,19.67
2022-10-11T05:29:06.474Z,18.80
2022-10-11T05:34:10.197Z,19.50
2022-10-11T05:39:20.309Z,6.07
2022-10-11T05:44:24.756Z,3.37
2022-10-11T05:49:28.181Z,2.67
2022-10-11T05:54:33.302Z,2.53
2022-10-11T05:59:37.106Z,2.50
2022-10-11T06:04:41.271Z,2.60
2022-10-11T06:09:46.323Z,2.30
2022-10-11T06:14:49.799Z,2.10
2022-10-11T06:19:53.371Z,4.50
2022-10-11T06:24:58.195Z,4.63
2022-10-11T06:30:02.020Z,3.13
2022-10-11T06:35:06.462Z,2.70
2022-10-11T06:40:12.722Z,3.50
2022-10-11T06:45:16.457Z,3.17
2022-10-11T06:50:34.825Z,3.93
2022-10-11T06:55:39.887Z,1.73
2022-10-11T07:00:43.431Z,2.27
2022-10-11T07:05:47.018Z,2.83
2022-10-11T07:10:52.411Z,2.20
2022-10-11T07:15:56.057Z,2.20
2022-10-11T07:20:59.645Z,1.70
2022-10-11T07:26:05.075Z,1.80
2022-10-11T07:31:10.575Z,1.30
2022-10-11T07:36:14.432Z,1.70
2022-10-11T07:41:20.102Z,1.53
2022-10-11T07:46:24.237Z,1.65
2022-10-11T07:51:27.843Z,11.43
2022-10-11T07:56:32.709Z,5.88
2022-10-11T08:01:36.282Z,4.72
2022-10-11T08:06:39.850Z,22.70
2022-10-11T08:11:44.697Z,2.80
2022-10-11T08:16:48.617Z,2.45
2022-10-11T08:21:52.054Z,3.60
2022-10-11T08:26:56.942Z,3.60
2022-10-11T08:32:00.853Z,3.83
2022-10-11T08:37:04.302Z,1.60
2022-10-11T08:42:16.794Z,1.50
2022-10-11T08:47:24.760Z,1.58
2022-10-11T08:52:45.846Z,1.60
2022-10-11T08:57:55.820Z,1.60
2022-10-11T09:03:08.855Z,1.90
2022-10-11T09:08:22.646Z,1.73
2022-10-11T09:13:45.221Z,1.65
2022-10-11T09:19:05.751Z,1.40
2022-10-11T09:24:23.988Z,1.80
2022-10-11T09:29:47.351Z,1.92
2022-10-11T09:34:58.801Z,2.08
2022-10-11T09:40:07.649Z,2.03
2022-10-11T09:45:18.535Z,2.20
2022-10-11T09:50:25.921Z,1.90
2022-10-11T09:55:35.051Z,2.50
2022-10-11T10:00:39.941Z,2.20
2022-10-11T10:05:44.011Z,2.03
2022-10-11T10:10:55.787Z,2.38
2022-10-11T10:16:04.489Z,2.63
2022-10-11T10:21:13.621Z,3.03
2022-10-11T10:26:19.455Z,2.60
2022-10-11T10:31:26.762Z,2.33
2022-10-11T10:36:34.652Z,2.38
2022-10-11T10:41:38.275Z,2.70
2022-10-11T10:46:56.693Z,2.50
2022-10-11T10:52:20.998Z,2.72
2022-10-11T10:57:30.566Z,3.10
2022-10-11T11:02:45.978Z,2.47
2022-10-11T11:07:55.896Z,2.20
2022-10-11T11:13:09.531Z,2.65
2022-10-11T11:18:29.076Z,2.42
2022-10-11T11:23:40.883Z,1.80
2022-10-11T11:28:55.131Z,2.65
2022-10-11T11:34:11.239Z,7.22
2022-10-11T11:39:20.422Z,2.05
2022-10-11T11:44:30.857Z,1.80
2022-10-11T11:49:39.935Z,1.90
2022-10-11T11:54:51.943Z,2.30
2022-10-11T12:00:02.657Z,2.25
2022-10-11T12:05:19.169Z,2.60
2022-10-11T12:10:30.249Z,2.30
2022-10-11T12:15:34.138Z,1.70
2022-10-11T12:20:41.640Z,3.80
2022-10-11T12:25:45.613Z,1.95
2022-10-11T12:30:54.628Z,3.47
2022-10-11T12:36:07.352Z,2.20
2022-10-11T12:41:38.319Z,1.85
2022-10-11T12:46:59.411Z,2.50
2022-10-11T12:52:07.057Z,1.90
2022-10-11T12:57:47.180Z,2.40
2022-10-11T13:02:51.453Z,5.28
2022-10-11T13:07:59.235Z,2.30
2022-10-11T13:13:04.661Z,1.80
2022-10-11T13:18:08.093Z,1.90
2022-10-11T13:23:24.250Z,1.52
2022-10-11T13:28:34.154Z,1.73
2022-10-11T13:33:44.126Z,2.50
2022-10-11T13:38:56.088Z,1.40
2022-10-11T13:44:01.387Z,1.50
2022-10-11T13:49:24.386Z,1.30
2022-10-11T13:54:55.132Z,1.30
2022-10-11T14:00:02.501Z,1.30
2022-10-11T14:05:25.297Z,1.30
2022-10-11T14:10:30.845Z,1.40
2022-10-11T14:15:35.794Z,1.20
2022-10-11T14:20:40.714Z,1.40
2022-10-11T14:25:45.632Z,1.50
2022-10-11T14:30:49.330Z,1.30
2022-10-11T14:35:52.709Z,1.13
2022-10-11T14:40:57.583Z,2.00
2022-10-11T14:46:00.994Z,1.60
2022-10-11T14:51:05.239Z,1.65
2022-10-11T14:56:10.258Z,1.50
2022-10-11T15:01:14.987Z,1.33
2022-10-11T15:06:20.513Z,1.63
2022-10-11T15:11:25.414Z,1.58
2022-10-11T15:16:28.837Z,1.60
2022-10-11T15:21:32.434Z,2.00
2022-10-11T15:26:37.529Z,1.53
2022-10-11T15:31:41.349Z,1.67
2022-10-11T15:36:44.814Z,2.08
2022-10-11T15:41:49.845Z,1.92
2022-10-11T15:46:53.827Z,1.67
2022-10-11T15:51:57.585Z,1.50
2022-10-11T15:57:02.793Z,1.77
2022-10-11T16:02:06.220Z,1.83
2022-10-11T16:07:09.985Z,1.90
2022-10-11T16:12:14.768Z,2.00
2022-10-11T16:17:18.191Z,2.00
2022-10-11T16:22:21.615Z,1.93
2022-10-11T16:27:26.368Z,1.80
2022-10-11T16:32:30.620Z,1.77
2022-10-11T16:37:34.587Z,1.90
2022-10-11T16:42:41.209Z,2.03
2022-10-11T16:47:45.095Z,2.17
2022-10-11T16:52:48.454Z,2.43
2022-10-11T16:57:53.613Z,2.60
2022-10-11T17:02:57.006Z,2.67
2022-10-11T17:08:00.398Z,2.15
2022-10-11T17:13:05.432Z,2.40
2022-10-11T17:18:08.827Z,2.05
2022-10-11T17:23:12.599Z,2.10
2022-10-11T17:28:17.506Z,2.37
2022-10-11T17:33:20.938Z,2.60
2022-10-11T17:38:27.460Z,2.63
2022-10-11T17:43:32.548Z,2.47
2022-10-11T17:48:39.233Z,2.40
2022-10-11T17:53:43.115Z,2.50
2022-10-11T17:58:49.311Z,2.10
2022-10-11T18:03:55.241Z,2.70
2022-10-11T18:09:02.146Z,2.83
2022-10-11T18:14:07.008Z,2.70
2022-10-11T18:19:13.693Z,2.53
2022-10-11T18:24:18.489Z,2.43
2022-10-11T18:29:23.293Z,2.53
2022-10-11T18:34:26.949Z,2.60
2022-10-11T18:39:30.309Z,2.70
2022-10-11T18:44:35.444Z,2.80
2022-10-11T18:49:38.973Z,3.23
2022-10-11T18:54:42.524Z,4.30
2022-10-11T18:59:47.349Z,3.50
2022-10-11T19:04:52.773Z,3.30
2022-10-11T19:09:56.498Z,3.20
2022-10-11T19:15:01.935Z,6.67
2022-10-11T19:20:06.912Z,5.63
2022-10-11T19:25:10.882Z,5.70
2022-10-11T19:30:16.114Z,5.13
2022-10-11T19:35:20.178Z,6.00
2022-10-11T19:40:23.597Z,8.20
2022-10-11T19:45:28.472Z,6.97
2022-10-11T19:50:31.845Z,6.00
2022-10-11T19:55:36.240Z,6.10
2022-10-11T20:00:41.297Z,5.50
2022-10-11T20:05:44.716Z,5.10
2022-10-11T20:10:48.202Z,4.10
2022-10-11T20:15:58.086Z,3.80
2022-10-11T20:21:04.446Z,3.30
2022-10-11T20:26:09.205Z,3.43
2022-10-11T20:31:15.883Z,3.00
2022-10-11T20:36:20.905Z,3.03
2022-10-11T20:41:26.330Z,4.00
2022-10-11T20:46:32.723Z,4.50
2022-10-11T20:51:38.886Z,4.10
2022-10-11T20:56:42.367Z,3.90
2022-10-11T21:01:47.529Z,5.03
2022-10-11T21:06:51.185Z,5.30
2022-10-11T21:11:54.600Z,5.10
2022-10-11T21:16:59.500Z,4.50
2022-10-11T21:22:03.081Z,4.50
2022-10-11T21:27:06.493Z,3.40
2022-10-11T21:32:14.406Z,3.47
2022-10-11T21:37:18.105Z,3.27
2022-10-11T21:42:24.768Z,3.10
2022-10-11T21:47:32.337Z,3.70
2022-10-11T21:52:36.198Z,3.80
2022-10-11T21:57:39.851Z,2.93
2022-10-11T22:02:44.614Z,3.47
2022-10-11T22:07:48.022Z,3.30
2022-10-11T22:12:51.470Z,2.87
2022-10-11T22:17:56.279Z,3.37
2022-10-11T22:22:59.672Z,3.40
2022-10-11T22:28:03.140Z,3.23
2022-10-11T22:33:07.946Z,2.87
2022-10-11T22:38:11.589Z,2.83
2022-10-11T22:43:15.122Z,2.90
2022-10-11T22:48:19.968Z,3.20
2022-10-11T22:53:24.280Z,2.97
2022-10-11T22:58:27.924Z,3.53
2022-10-11T23:03:32.842Z,3.40
2022-10-11T23:08:39.178Z,3.13
2022-10-11T23:13:42.551Z,3.53
2022-10-11T23:18:47.437Z,3.27
2022-10-11T23:23:53.589Z,3.40
2022-10-11T23:28:57.414Z,3.30
2022-10-11T23:34:02.243Z,3.30
2022-10-11T23:39:05.857Z,3.00
2022-10-11T23:44:09.747Z,3.40
2022-10-11T23:49:14.645Z,3.10
2022-10-11T23:54:18.032Z,3.13
2022-10-11T23:59:21.403Z,3.67
